Time;durP1;ratioP1;P1;durP2;ratioP2;P2;SDS_P1;SDS_P2;PMS_P1;PMS_P2;Temp;Humidity;BMP_temperature;BMP_pressure;BME280_temperature;BME280_humidity;BME280_pressure;Samples;Min_cycle;Max_cycle;Signal;HPM_P1;HPM_P2
2022/01/14 00:00:44;;;;;;;0.63;0.63;;;0.00;99.90;;;;;;4922855;29;20840;-78
2022/01/14 00:03:11;;;;;;;0.40;0.40;;;0.10;99.90;;;;;;4922811;29;21000;-78
2022/01/14 00:05:39;;;;;;;0.30;0.30;;;0.00;99.90;;;;;;4923168;29;20440;-78
2022/01/14 00:08:06;;;;;;;0.73;0.73;;;0.00;99.90;;;;;;4923161;29;20428;-78
2022/01/14 00:10:35;;;;;;;0.40;0.40;;;0.00;99.90;;;;;;4928510;29;20810;-86
2022/01/14 00:13:10;;;;;;;0.57;0.57;;;-0.10;99.90;;;;;;4927022;29;20946;-85
2022/01/14 00:15:36;;;;;;;0.70;0.70;;;-0.10;99.90;;;;;;4927873;29;20794;-85
2022/01/14 00:18:04;;;;;;;2.20;1.47;;;-0.20;99.90;;;;;;4927301;29;20439;-85
2022/01/14 00:20:31;;;;;;;0.50;0.50;;;-0.20;99.90;;;;;;4926374;29;20440;-86
2022/01/14 00:22:59;;;;;;;0.70;0.70;;;-0.20;99.90;;;;;;4925764;29;20447;-86
2022/01/14 00:33:39;;;;;;;0.77;0.77;;;-0.30;99.90;;;;;;4922925;29;21006;-80
2022/01/14 00:36:06;;;;;;;0.40;0.40;;;-0.30;99.90;;;;;;4922957;29;20446;-80
2022/01/14 00:38:34;;;;;;;0.30;0.30;;;-0.30;99.90;;;;;;4923424;29;20466;-86
2022/01/14 00:41:01;;;;;;;0.30;0.20;;;-0.30;99.90;;;;;;4924050;29;20460;-85
2022/01/14 00:43:28;;;;;;;0.60;0.60;;;-0.30;99.90;;;;;;4921639;29;20826;-86
2022/01/14 00:45:55;;;;;;;0.50;0.50;;;-0.30;99.90;;;;;;4926466;29;20431;-86
2022/01/14 00:48:22;;;;;;;1.00;1.00;;;-0.30;99.90;;;;;;4921014;29;20507;-85
2022/01/14 00:50:49;;;;;;;0.50;0.40;;;-0.30;99.90;;;;;;4920288;29;20559;-86
2022/01/14 00:53:16;;;;;;;2.53;2.43;;;-0.30;99.90;;;;;;4920109;29;20468;-86
2022/01/14 00:55:52;;;;;;;0.40;0.40;;;-0.30;99.90;;;;;;4920376;29;20447;-85
2022/01/14 01:01:03;;;;;;;0.40;0.40;;;-0.30;99.90;;;;;;4920095;29;20797;-79
2022/01/14 01:03:32;;;;;;;1.17;1.17;;;-0.40;99.90;;;;;;4919500;29;20479;-79
2022/01/14 01:05:59;;;;;;;0.50;0.50;;;-0.40;99.90;;;;;;4919506;29;20462;-78
2022/01/14 01:08:28;;;;;;;0.63;0.53;;;-0.40;99.90;;;;;;4919444;29;20463;-78
2022/01/14 01:10:56;;;;;;;1.17;1.17;;;-0.40;99.90;;;;;;4919416;29;20467;-79
2022/01/14 01:13:26;;;;;;;0.70;0.50;;;-0.30;99.90;;;;;;4918934;29;20483;-78
2022/01/14 01:15:53;;;;;;;0.30;0.30;;;-0.30;99.90;;;;;;4919460;29;20419;-84
2022/01/14 01:18:21;;;;;;;0.53;0.53;;;-0.40;99.90;;;;;;4921849;29;20460;-85
2022/01/14 01:20:49;;;;;;;0.63;0.63;;;-0.40;99.90;;;;;;4921316;29;20448;-85
2022/01/14 01:23:16;;;;;;;1.23;1.20;;;-0.40;99.90;;;;;;4922001;29;20480;-85
2022/01/14 01:25:47;;;;;;;0.50;0.50;;;-0.40;99.90;;;;;;4919851;29;20419;-79
2022/01/14 01:28:15;;;;;;;0.90;0.70;;;-0.40;99.90;;;;;;4919139;29;20432;-79
2022/01/14 01:31:03;;;;;;;0.40;0.40;;;-0.40;99.90;;;;;;4918804;29;20950;-79
2022/01/14 01:33:30;;;;;;;0.60;0.60;;;-0.40;99.90;;;;;;4918659;29;21006;-80
2022/01/14 01:35:57;;;;;;;0.50;0.50;;;-0.30;99.90;;;;;;4920899;29;20483;-85
2022/01/14 01:38:24;;;;;;;1.27;1.17;;;-0.30;99.90;;;;;;4921150;29;20966;-85
2022/01/14 01:40:51;;;;;;;0.50;0.50;;;-0.30;99.90;;;;;;4921261;29;20430;-85
2022/01/14 01:43:21;;;;;;;0.30;0.30;;;-0.30;99.90;;;;;;4922009;29;20528;-85
2022/01/14 01:45:50;;;;;;;0.83;0.83;;;-0.40;99.90;;;;;;4921587;29;20799;-85
2022/01/14 01:48:17;;;;;;;0.40;0.40;;;-0.40;99.90;;;;;;4921064;29;20448;-85
2022/01/14 01:50:44;;;;;;;0.60;0.60;;;-0.50;99.90;;;;;;4920144;29;20514;-83
2022/01/14 01:53:11;;;;;;;0.30;0.30;;;-0.50;99.90;;;;;;4918535;29;20451;-82
2022/01/14 01:55:38;;;;;;;2.13;2.03;;;-0.50;99.90;;;;;;4918349;29;20462;-82
2022/01/14 01:58:05;;;;;;;0.53;0.53;;;-0.50;99.90;;;;;;4918485;29;20470;-80
2022/01/14 02:00:33;;;;;;;0.60;0.60;;;-0.50;99.90;;;;;;4918509;29;20460;-79
2022/01/14 02:03:00;;;;;;;2.97;1.43;;;-0.60;99.90;;;;;;4918142;29;20942;-79
2022/01/14 02:05:27;;;;;;;0.40;0.33;;;-0.60;99.90;;;;;;4918458;29;20455;-82
2022/01/14 02:07:54;;;;;;;0.30;0.30;;;-0.50;99.90;;;;;;4918128;29;20931;-82
2022/01/14 02:10:22;;;;;;;0.40;0.40;;;-0.60;99.90;;;;;;4918319;29;20538;-82
2022/01/14 02:12:52;;;;;;;1.30;1.30;;;-0.50;99.90;;;;;;4918215;29;20448;-82
2022/01/14 02:15:44;;;;;;;0.40;0.30;;;-0.60;99.90;;;;;;4918221;29;20492;-82
2022/01/14 02:18:38;;;;;;;1.80;1.50;;;-0.60;99.90;;;;;;4919072;29;20440;-82
2022/01/14 02:24:19;;;;;;;0.30;0.30;;;-0.50;99.90;;;;;;4894781;29;20509;-78
2022/01/14 02:26:49;;;;;;;0.30;0.30;;;-0.60;99.90;;;;;;4918087;29;20467;-78
2022/01/14 02:29:16;;;;;;;1.17;1.17;;;-0.60;99.90;;;;;;4921584;29;20452;-84
2022/01/14 02:31:43;;;;;;;0.30;0.20;;;-0.70;99.90;;;;;;4928840;29;20448;-84
2022/01/14 02:34:11;;;;;;;0.30;0.30;;;-0.70;99.90;;;;;;4928694;29;20466;-84
2022/01/14 02:36:41;;;;;;;0.40;0.40;;;-0.70;99.90;;;;;;4929230;29;20495;-84
2022/01/14 02:39:08;;;;;;;0.60;0.60;;;-0.70;99.90;;;;;;4925761;29;20922;-78
2022/01/14 02:41:35;;;;;;;1.90;0.73;;;-0.60;99.90;;;;;;4920596;29;20430;-84
2022/01/14 02:44:04;;;;;;;0.30;0.30;;;-0.60;99.90;;;;;;4926212;29;20476;-84
2022/01/14 02:46:37;;;;;;;1.07;0.50;;;-0.60;99.90;;;;;;4923817;29;20829;-78
2022/01/14 02:49:04;;;;;;;0.40;0.40;;;-0.60;99.90;;;;;;4918315;29;20440;-82
2022/01/14 02:51:31;;;;;;;1.47;1.40;;;-0.70;99.90;;;;;;4917675;29;20434;-82
2022/01/14 02:54:11;;;;;;;0.50;0.50;;;-0.70;99.90;;;;;;4917577;29;20450;-82
2022/01/14 02:56:39;;;;;;;0.33;0.33;;;-0.70;99.90;;;;;;4917608;29;20440;-82
2022/01/14 02:59:08;;;;;;;0.70;0.70;;;-0.70;99.90;;;;;;4918131;29;20947;-78
2022/01/14 03:01:36;;;;;;;0.40;0.40;;;-0.60;99.90;;;;;;4917967;29;20780;-79
2022/01/14 03:04:04;;;;;;;2.00;0.60;;;-0.70;99.90;;;;;;4917170;29;20467;-79
2022/01/14 03:06:31;;;;;;;0.30;0.20;;;-0.60;99.90;;;;;;4916674;29;20423;-79
2022/01/14 03:09:00;;;;;;;0.53;0.53;;;-0.60;99.90;;;;;;4922421;29;20471;-84
2022/01/14 03:11:31;;;;;;;0.30;0.20;;;-0.60;99.90;;;;;;4923393;29;20447;-84
2022/01/14 03:13:58;;;;;;;0.30;0.30;;;-0.60;99.90;;;;;;4926720;29;20484;-84
2022/01/14 03:16:25;;;;;;;0.50;0.50;;;-0.60;99.90;;;;;;4926901;29;20415;-84
2022/01/14 03:18:54;;;;;;;0.30;0.30;;;-0.60;99.90;;;;;;4918208;29;20430;-79
2022/01/14 03:21:28;;;;;;;0.40;0.40;;;-0.60;99.90;;;;;;4917010;29;20526;-78
2022/01/14 03:24:03;;;;;;;0.30;0.30;;;-0.60;99.90;;;;;;4917432;29;20454;-78
2022/01/14 03:26:31;;;;;;;0.57;0.43;;;-0.60;99.90;;;;;;4917448;29;20439;-78
2022/01/14 03:28:59;;;;;;;0.37;0.37;;;-0.60;99.90;;;;;;4917175;29;20456;-82
2022/01/14 03:31:25;;;;;;;0.60;0.60;;;-0.60;99.90;;;;;;4922773;29;20459;-82
2022/01/14 03:33:52;;;;;;;0.30;0.30;;;-0.70;99.90;;;;;;4917118;29;20981;-82
2022/01/14 03:36:19;;;;;;;0.97;0.97;;;-0.70;99.90;;;;;;4916911;29;20853;-82
2022/01/14 03:38:45;;;;;;;0.40;0.40;;;-0.60;99.90;;;;;;4916909;29;20491;-82
2022/01/14 03:41:12;;;;;;;0.33;0.33;;;-0.60;99.90;;;;;;4916794;29;20832;-82
2022/01/14 03:43:41;;;;;;;0.50;0.50;;;-0.60;99.90;;;;;;4917019;29;20472;-82
2022/01/14 03:46:08;;;;;;;0.30;0.30;;;-0.60;99.90;;;;;;4917114;29;20535;-82
2022/01/14 03:48:35;;;;;;;0.33;0.33;;;-0.60;99.90;;;;;;4917063;29;20458;-82
2022/01/14 03:51:02;;;;;;;0.43;0.40;;;-0.60;99.90;;;;;;4916943;29;20467;-78
2022/01/14 03:53:29;;;;;;;0.40;0.40;;;-0.60;99.90;;;;;;4916599;29;20446;-77
2022/01/14 03:55:55;;;;;;;1.00;0.93;;;-0.70;99.90;;;;;;4916612;29;21094;-78
2022/01/14 03:58:22;;;;;;;0.47;0.47;;;-0.70;99.90;;;;;;4917450;29;20453;-78
2022/01/14 04:00:50;;;;;;;0.30;0.30;;;-0.70;99.90;;;;;;4916916;29;20434;-82
2022/01/14 04:03:17;;;;;;;0.57;0.57;;;-0.70;99.90;;;;;;4916628;29;20467;-82
2022/01/14 04:05:44;;;;;;;0.30;0.30;;;-0.70;99.90;;;;;;4916649;29;20923;-78
2022/01/14 04:08:11;;;;;;;0.30;0.30;;;-0.70;99.90;;;;;;4916639;29;20438;-78
2022/01/14 04:10:37;;;;;;;0.40;0.40;;;-0.70;99.90;;;;;;4916799;29;20464;-78
2022/01/14 04:13:11;;;;;;;1.03;1.03;;;-0.70;99.90;;;;;;4916732;29;20448;-78
2022/01/14 04:15:39;;;;;;;0.30;0.30;;;-0.70;99.90;;;;;;4916769;29;20508;-82
2022/01/14 04:18:08;;;;;;;0.30;0.30;;;-0.60;99.90;;;;;;4916986;29;20462;-82
2022/01/14 04:20:36;;;;;;;0.30;0.30;;;-0.70;99.90;;;;;;4920364;29;20447;-82
2022/01/14 04:23:04;;;;;;;0.30;0.30;;;-0.70;99.90;;;;;;4920282;29;20456;-79
2022/01/14 04:25:32;;;;;;;0.30;0.30;;;-0.70;99.90;;;;;;4920246;29;20483;-79
2022/01/14 04:27:58;;;;;;;0.37;0.37;;;-0.70;99.90;;;;;;4920342;29;20460;-79
2022/01/14 04:30:25;;;;;;;0.40;0.40;;;-0.70;99.90;;;;;;4919794;29;20943;-82
2022/01/14 04:32:52;;;;;;;0.30;0.30;;;-0.70;99.90;;;;;;4920098;29;20456;-79
2022/01/14 04:35:20;;;;;;;0.30;0.30;;;-0.80;99.90;;;;;;4919928;29;20492;-79
2022/01/14 04:37:47;;;;;;;0.30;0.30;;;-0.80;99.90;;;;;;4919805;29;20503;-79
2022/01/14 04:40:14;;;;;;;0.60;0.60;;;-0.80;99.90;;;;;;4920040;29;20437;-82
2022/01/14 04:42:43;;;;;;;0.33;0.33;;;-0.80;99.90;;;;;;4919665;29;20452;-81
2022/01/14 04:45:11;;;;;;;0.40;0.40;;;-0.80;99.90;;;;;;4920084;29;20553;-81
2022/01/14 04:47:45;;;;;;;0.30;0.30;;;-0.80;99.90;;;;;;4920156;29;20542;-81
2022/01/14 04:50:12;;;;;;;0.30;0.20;;;-0.80;99.90;;;;;;4919591;29;20428;-81
2022/01/14 04:52:42;;;;;;;0.30;0.30;;;-0.80;99.90;;;;;;4919985;29;20460;-81
2022/01/14 04:55:10;;;;;;;0.30;0.30;;;-0.80;99.90;;;;;;4919830;29;20991;-81
2022/01/14 04:57:38;;;;;;;0.30;0.30;;;-0.80;99.90;;;;;;4919353;29;20822;-81
2022/01/14 05:00:07;;;;;;;0.53;0.53;;;-0.80;99.90;;;;;;4919496;29;20459;-81
2022/01/14 05:02:34;;;;;;;0.33;0.33;;;-0.80;99.90;;;;;;4919557;29;20460;-77
2022/01/14 05:05:02;;;;;;;0.30;0.30;;;-0.90;99.90;;;;;;4919622;29;20562;-77
2022/01/14 05:07:28;;;;;;;0.57;0.57;;;-0.90;99.90;;;;;;4919510;29;20511;-78
2022/01/14 05:10:09;;;;;;;0.30;0.30;;;-0.90;99.90;;;;;;4919502;29;20434;-79
2022/01/14 05:12:38;;;;;;;0.67;0.67;;;-0.90;99.90;;;;;;4919552;29;20422;-77
2022/01/14 05:15:06;;;;;;;0.30;0.30;;;-0.90;99.90;;;;;;4919330;29;20492;-77
2022/01/14 05:17:32;;;;;;;0.30;0.30;;;-0.90;99.90;;;;;;4919078;29;20975;-77
2022/01/14 05:19:59;;;;;;;0.60;0.60;;;-0.90;99.90;;;;;;4919501;29;20434;-77
2022/01/14 05:22:26;;;;;;;0.30;0.30;;;-0.90;99.90;;;;;;4919232;29;20805;-77
2022/01/14 05:24:53;;;;;;;0.50;0.50;;;-1.00;99.90;;;;;;4919129;29;20468;-76
2022/01/14 05:27:21;;;;;;;0.30;0.30;;;-1.00;99.90;;;;;;4919195;29;20456;-77
2022/01/14 05:29:48;;;;;;;0.70;0.60;;;-1.00;99.90;;;;;;4918245;29;20460;-76
2022/01/14 05:32:15;;;;;;;0.30;0.30;;;-1.00;99.90;;;;;;4919077;29;20440;-80
2022/01/14 05:34:44;;;;;;;1.50;0.50;;;-1.00;99.90;;;;;;4918939;29;20468;-79
2022/01/14 05:37:12;;;;;;;0.50;0.40;;;-1.10;99.90;;;;;;4918755;29;20484;-79
2022/01/14 05:39:39;;;;;;;0.83;0.60;;;-1.10;99.90;;;;;;4918943;29;20452;-79
2022/01/14 05:42:07;;;;;;;1.27;1.27;;;-1.10;99.90;;;;;;4918832;29;20463;-79
2022/01/14 05:44:36;;;;;;;0.30;0.30;;;-1.10;99.90;;;;;;4918773;29;20475;-77
2022/01/14 05:47:03;;;;;;;0.30;0.30;;;-1.20;99.90;;;;;;4918785;29;20452;-76
2022/01/14 05:49:30;;;;;;;1.47;1.37;;;-1.10;99.90;;;;;;4918359;29;20833;-78
2022/01/14 05:51:57;;;;;;;0.30;0.30;;;-1.10;99.90;;;;;;4918571;29;20821;-78
2022/01/14 05:54:24;;;;;;;0.30;0.30;;;-1.10;99.90;;;;;;4918651;29;20488;-80
2022/01/14 05:56:51;;;;;;;0.40;0.40;;;-1.10;99.90;;;;;;4918741;29;20463;-82
2022/01/14 05:59:18;;;;;;;1.03;1.03;;;-1.10;99.90;;;;;;4918636;29;20467;-81
2022/01/14 06:01:47;;;;;;;0.40;0.40;;;-1.10;99.90;;;;;;4918562;29;20430;-81
2022/01/14 06:04:13;;;;;;;0.30;0.30;;;-1.00;99.90;;;;;;4918179;29;20479;-77
2022/01/14 06:06:40;;;;;;;0.30;0.30;;;-1.00;99.90;;;;;;4918591;29;20827;-77
2022/01/14 06:09:07;;;;;;;0.80;0.80;;;-1.00;99.90;;;;;;4918411;29;20456;-77
2022/01/14 06:11:34;;;;;;;0.30;0.30;;;-1.00;99.90;;;;;;4917952;29;20447;-76
2022/01/14 06:14:00;;;;;;;0.40;0.40;;;-1.00;99.90;;;;;;4918746;29;20472;-77
2022/01/14 06:16:27;;;;;;;0.30;0.30;;;-0.90;99.90;;;;;;4918921;29;20495;-82
2022/01/14 06:18:55;;;;;;;0.30;0.30;;;-1.00;99.90;;;;;;4918572;29;20447;-76
2022/01/14 06:21:22;;;;;;;0.40;0.37;;;-1.00;99.90;;;;;;4918098;29;20803;-76
2022/01/14 06:23:49;;;;;;;0.50;0.50;;;-0.90;99.90;;;;;;4918213;29;20474;-76
2022/01/14 06:26:15;;;;;;;0.30;0.30;;;-1.00;99.90;;;;;;4918250;29;20452;-77
2022/01/14 06:28:43;;;;;;;0.30;0.30;;;-1.00;99.90;;;;;;4917971;29;20460;-77
2022/01/14 06:31:10;;;;;;;0.50;0.50;;;-1.10;99.90;;;;;;4917997;29;20486;-82
2022/01/14 06:33:37;;;;;;;1.60;0.97;;;-1.10;99.90;;;;;;4918442;29;20881;-79
2022/01/14 06:36:05;;;;;;;0.47;0.47;;;-1.00;99.90;;;;;;4917814;29;20492;-79
2022/01/14 06:38:32;;;;;;;0.40;0.40;;;-1.00;99.90;;;;;;4917305;29;20487;-79
2022/01/14 06:40:59;;;;;;;0.30;0.30;;;-1.10;99.90;;;;;;4917119;29;20483;-76
2022/01/14 06:43:26;;;;;;;0.30;0.30;;;-1.00;99.90;;;;;;4917718;29;20479;-76
2022/01/14 06:45:52;;;;;;;0.40;0.40;;;-1.00;99.90;;;;;;4917755;29;20427;-80
2022/01/14 06:48:19;;;;;;;0.50;0.50;;;-1.00;99.90;;;;;;4917997;29;20423;-80
2022/01/14 06:50:46;;;;;;;0.30;0.30;;;-1.00;99.90;;;;;;4917681;29;20467;-80
2022/01/14 06:53:14;;;;;;;0.30;0.30;;;-1.00;99.90;;;;;;4917587;29;20535;-80
2022/01/14 06:55:41;;;;;;;1.37;1.20;;;-1.00;99.90;;;;;;4917530;29;20462;-80
2022/01/14 06:58:08;;;;;;;0.40;0.30;;;-1.00;99.90;;;;;;4917407;29;20456;-80
2022/01/14 07:00:35;;;;;;;0.30;0.30;;;-1.00;99.90;;;;;;4917527;29;20455;-80
2022/01/14 07:03:02;;;;;;;1.00;1.00;;;-1.00;99.90;;;;;;4917143;29;20818;-80
2022/01/14 07:05:29;;;;;;;0.30;0.30;;;-1.00;99.90;;;;;;4917462;29;20455;-80
2022/01/14 07:07:56;;;;;;;0.30;0.20;;;-1.00;99.90;;;;;;4917448;29;20434;-80
2022/01/14 07:10:24;;;;;;;0.40;0.40;;;-1.10;99.90;;;;;;4917091;29;20944;-80
2022/01/14 07:12:51;;;;;;;0.30;0.30;;;-1.00;99.90;;;;;;4917257;29;20462;-80
2022/01/14 07:15:20;;;;;;;0.40;0.40;;;-1.00;99.90;;;;;;4917553;29;20441;-80
2022/01/14 07:17:47;;;;;;;0.30;0.30;;;-1.00;99.90;;;;;;4917018;29;20431;-80
2022/01/14 07:20:17;;;;;;;0.30;0.30;;;-0.90;99.90;;;;;;4917156;29;20467;-80
2022/01/14 07:22:46;;;;;;;0.30;0.30;;;-0.90;99.90;;;;;;4917495;29;20433;-80
2022/01/14 07:25:13;;;;;;;0.30;0.30;;;-0.90;99.90;;;;;;4917227;29;20492;-80
2022/01/14 07:27:42;;;;;;;0.50;0.50;;;-0.90;99.90;;;;;;4917114;29;20452;-80
2022/01/14 07:30:10;;;;;;;0.30;0.20;;;-0.90;99.90;;;;;;4916945;29;20971;-81
2022/01/14 07:32:37;;;;;;;0.40;0.40;;;-0.90;99.90;;;;;;4916871;29;20833;-81
2022/01/14 07:35:05;;;;;;;0.30;0.30;;;-0.90;99.90;;;;;;4917030;29;20476;-80
2022/01/14 07:37:32;;;;;;;0.30;0.30;;;-0.90;99.90;;;;;;4916547;29;20503;-80
2022/01/14 07:39:58;;;;;;;1.70;0.53;;;-0.90;99.90;;;;;;4917435;29;20918;-81
2022/01/14 07:42:25;;;;;;;0.30;0.30;;;-0.90;99.90;;;;;;4917330;29;20411;-80
2022/01/14 07:44:53;;;;;;;0.30;0.30;;;-0.80;99.90;;;;;;4917012;29;20476;-80
2022/01/14 07:47:21;;;;;;;0.30;0.30;;;-0.80;99.90;;;;;;4917073;29;20433;-81
2022/01/14 07:49:48;;;;;;;0.83;0.83;;;-0.80;99.90;;;;;;4916985;29;20463;-81
2022/01/14 07:52:14;;;;;;;0.40;0.40;;;-0.70;99.90;;;;;;4917491;29;20516;-80
2022/01/14 07:54:41;;;;;;;0.30;0.20;;;-0.80;99.90;;;;;;4920454;29;20458;-80
2022/01/14 07:57:08;;;;;;;0.40;0.40;;;-0.80;99.90;;;;;;4920633;29;20467;-80
2022/01/14 07:59:36;;;;;;;0.30;0.30;;;-0.80;99.90;;;;;;4920574;29;20471;-80
2022/01/14 08:02:06;;;;;;;0.30;0.20;;;-0.80;99.90;;;;;;4920757;29;20440;-80
2022/01/14 08:04:35;;;;;;;0.30;0.30;;;-0.70;99.90;;;;;;4920756;29;20504;-80
2022/01/14 08:07:09;;;;;;;0.30;0.30;;;-0.70;99.90;;;;;;4920255;29;20879;-80
2022/01/14 08:09:36;;;;;;;0.40;0.40;;;-0.70;99.90;;;;;;4920618;29;20436;-80
2022/01/14 08:12:04;;;;;;;0.90;0.90;;;-0.70;99.90;;;;;;4920203;29;20431;-81
2022/01/14 08:14:31;;;;;;;0.30;0.20;;;-0.70;99.90;;;;;;4920382;29;20981;-81
2022/01/14 08:16:58;;;;;;;0.30;0.30;;;-0.60;99.90;;;;;;4920396;29;20480;-81
2022/01/14 08:19:32;;;;;;;0.50;0.50;;;-0.60;99.90;;;;;;4920086;29;20460;-81
2022/01/14 08:21:59;;;;;;;0.30;0.30;;;-0.60;99.90;;;;;;4920017;29;20813;-80
2022/01/14 08:24:26;;;;;;;0.30;0.30;;;-0.50;99.90;;;;;;4920230;29;20479;-80
2022/01/14 08:26:53;;;;;;;0.30;0.30;;;-0.50;99.90;;;;;;4919827;29;20801;-80
2022/01/14 08:29:20;;;;;;;0.30;0.30;;;-0.50;99.90;;;;;;4920029;29;20447;-80
2022/01/14 08:31:46;;;;;;;0.30;0.30;;;-0.40;99.90;;;;;;4919844;29;20460;-80
2022/01/14 08:34:14;;;;;;;0.30;0.30;;;-0.40;99.90;;;;;;4920093;29;20479;-80
2022/01/14 08:36:42;;;;;;;0.30;0.30;;;-0.30;99.90;;;;;;4919849;29;20540;-80
2022/01/14 08:39:09;;;;;;;0.63;0.63;;;-0.20;99.90;;;;;;4922199;29;20451;-80
2022/01/14 08:41:36;;;;;;;0.33;0.33;;;-0.20;99.90;;;;;;4920928;29;20451;-80
2022/01/14 08:44:03;;;;;;;0.60;0.60;;;-0.10;99.90;;;;;;4919840;29;20475;-80
2022/01/14 08:46:29;;;;;;;0.60;0.60;;;0.00;99.90;;;;;;4919879;29;20542;-80
2022/01/14 08:48:59;;;;;;;0.30;0.30;;;0.10;99.90;;;;;;4919897;29;20460;-80
2022/01/14 08:51:28;;;;;;;0.30;0.30;;;0.10;99.90;;;;;;4919856;29;20448;-80
2022/01/14 08:53:57;;;;;;;0.30;0.30;;;0.20;99.90;;;;;;4919725;29;20454;-80
2022/01/14 08:56:24;;;;;;;0.40;0.40;;;0.30;99.90;;;;;;4919896;29;20484;-80
2022/01/14 08:58:51;;;;;;;0.87;0.50;;;0.40;99.90;;;;;;4919589;29;20451;-80
2022/01/14 09:01:18;;;;;;;0.30;0.20;;;0.40;99.90;;;;;;4919363;29;20451;-81
2022/01/14 09:03:44;;;;;;;0.50;0.50;;;0.50;99.90;;;;;;4918702;29;21006;-80
2022/01/14 09:06:11;;;;;;;1.63;1.53;;;0.60;99.90;;;;;;4919723;29;20531;-82
2022/01/14 09:08:38;;;;;;;0.30;0.30;;;0.70;99.90;;;;;;4920166;29;20788;-82
2022/01/14 09:11:07;;;;;;;0.80;0.80;;;0.70;99.90;;;;;;4919177;29;20828;-82
2022/01/14 09:13:34;;;;;;;0.30;0.30;;;0.80;99.90;;;;;;4919413;29;20821;-82
2022/01/14 09:16:02;;;;;;;0.50;0.50;;;0.90;99.90;;;;;;4919281;29;21007;-82
2022/01/14 09:18:29;;;;;;;0.40;0.40;;;1.00;99.90;;;;;;4919120;29;20445;-82
2022/01/14 09:20:58;;;;;;;0.60;0.43;;;1.10;99.90;;;;;;4919437;29;20440;-82
2022/01/14 09:23:25;;;;;;;0.70;0.70;;;1.60;99.90;;;;;;4919305;29;20480;-82
2022/01/14 09:25:52;;;;;;;1.70;0.63;;;2.60;99.90;;;;;;4919272;29;20484;-82
2022/01/14 09:28:21;;;;;;;0.30;0.30;;;4.10;99.90;;;;;;4919210;29;20452;-82
2022/01/14 09:30:48;;;;;;;0.50;0.50;;;5.80;99.90;;;;;;4919225;29;20447;-80
2022/01/14 09:33:17;;;;;;;0.73;0.73;;;7.40;99.90;;;;;;4918776;29;20952;-80
2022/01/14 09:35:45;;;;;;;0.53;0.53;;;8.60;99.90;;;;;;4919083;29;20444;-80
2022/01/14 09:38:12;;;;;;;0.90;0.90;;;9.30;99.90;;;;;;4918477;29;20858;-80
2022/01/14 09:40:44;;;;;;;1.10;0.90;;;9.50;99.90;;;;;;4919017;29;20443;-80
2022/01/14 09:43:13;;;;;;;3.07;0.90;;;9.50;99.90;;;;;;4918878;29;20476;-82
2022/01/14 09:45:43;;;;;;;0.93;0.80;;;9.50;99.90;;;;;;4918721;29;20424;-81
2022/01/14 09:48:13;;;;;;;1.40;1.30;;;9.50;99.90;;;;;;4918845;29;20440;-81
2022/01/14 09:50:40;;;;;;;1.77;0.70;;;9.40;99.90;;;;;;4918491;29;20912;-81
2022/01/14 09:53:07;;;;;;;1.00;0.90;;;9.30;99.90;;;;;;4918327;29;20987;-81
2022/01/14 09:55:34;;;;;;;3.27;0.97;;;9.30;99.90;;;;;;4918722;29;20447;-81
2022/01/14 09:58:01;;;;;;;1.07;0.70;;;9.30;99.90;;;;;;4918407;29;20472;-81
2022/01/14 10:00:28;;;;;;;1.67;1.03;;;9.80;99.90;;;;;;4918931;29;20436;-81
2022/01/14 10:02:56;;;;;;;1.20;0.67;;;10.50;97.90;;;;;;4918615;29;20452;-81
2022/01/14 10:05:35;;;;;;;1.87;1.00;;;11.50;95.70;;;;;;4918527;29;20436;-81
2022/01/14 10:08:09;;;;;;;0.93;0.93;;;12.70;92.20;;;;;;4918460;29;20440;-81
2022/01/14 10:10:38;;;;;;;1.07;0.97;;;13.90;89.00;;;;;;4918687;29;20435;-81
2022/01/14 10:13:12;;;;;;;2.90;1.70;;;14.70;84.00;;;;;;4918505;29;20466;-81
2022/01/14 10:15:44;;;;;;;0.63;0.63;;;15.70;76.40;;;;;;4918319;29;20777;-81
2022/01/14 10:18:14;;;;;;;2.10;0.87;;;16.40;70.70;;;;;;4918243;29;20476;-81
2022/01/14 10:20:41;;;;;;;1.10;1.07;;;16.90;66.20;;;;;;4918235;29;20428;-81
2022/01/14 10:23:08;;;;;;;1.57;1.10;;;16.70;62.60;;;;;;4918184;29;20539;-81
2022/01/14 10:25:35;;;;;;;1.77;1.63;;;16.10;62.10;;;;;;4918083;29;20436;-81
2022/01/14 10:28:02;;;;;;;0.77;0.77;;;15.00;63.70;;;;;;4918086;29;20432;-81
2022/01/14 10:30:32;;;;;;;1.73;0.90;;;13.70;66.50;;;;;;4917854;29;20427;-81
2022/01/14 10:33:01;;;;;;;1.07;0.80;;;12.50;71.60;;;;;;4917975;29;20466;-81
2022/01/14 10:35:31;;;;;;;0.70;0.70;;;11.50;73.60;;;;;;4918515;29;20455;-81
2022/01/14 10:38:01;;;;;;;0.97;0.70;;;10.40;76.60;;;;;;4917448;29;21004;-82
2022/01/14 10:40:30;;;;;;;0.60;0.60;;;9.70;80.90;;;;;;4917789;29;20456;-82
2022/01/14 10:43:01;;;;;;;2.30;0.60;;;9.20;84.30;;;;;;4917811;29;20447;-81
2022/01/14 10:45:29;;;;;;;0.40;0.40;;;8.90;87.00;;;;;;4917609;29;20440;-82
2022/01/14 10:47:58;;;;;;;0.50;0.47;;;8.70;88.40;;;;;;4917831;29;20444;-82
2022/01/14 10:50:38;;;;;;;0.90;0.60;;;8.60;90.50;;;;;;4917814;29;20506;-84
2022/01/14 10:53:09;;;;;;;2.03;0.43;;;8.50;91.90;;;;;;4917645;29;20440;-83
2022/01/14 10:55:41;;;;;;;0.50;0.43;;;8.40;91.60;;;;;;4917753;29;20440;-82
2022/01/14 10:58:13;;;;;;;0.40;0.40;;;8.20;92.00;;;;;;4921855;29;20472;-84
2022/01/14 11:00:42;;;;;;;0.40;0.40;;;8.10;91.80;;;;;;4918032;29;20441;-83
2022/01/14 11:03:09;;;;;;;0.30;0.30;;;8.00;91.30;;;;;;4917705;29;20495;-84
2022/01/14 11:05:37;;;;;;;0.30;0.30;;;7.80;91.30;;;;;;4918369;29;20447;-84
2022/01/14 11:08:05;;;;;;;0.30;0.30;;;7.60;90.50;;;;;;4917994;29;20444;-84
2022/01/14 11:10:34;;;;;;;0.40;0.30;;;7.40;91.60;;;;;;4918644;29;20527;-82
2022/01/14 11:13:03;;;;;;;1.33;0.57;;;7.40;93.50;;;;;;4918960;29;20448;-82
2022/01/14 11:15:32;;;;;;;0.40;0.33;;;7.20;94.10;;;;;;4918138;29;20775;-82
2022/01/14 11:18:04;;;;;;;0.50;0.47;;;7.10;94.60;;;;;;4918361;29;20479;-81
2022/01/14 11:20:36;;;;;;;0.40;0.40;;;7.00;95.60;;;;;;4918491;29;20444;-83
2022/01/14 11:23:15;;;;;;;0.30;0.30;;;6.90;96.00;;;;;;4918468;29;20441;-82
2022/01/14 11:25:49;;;;;;;0.30;0.20;;;6.80;95.30;;;;;;4917246;29;20522;-82
2022/01/14 11:28:19;;;;;;;0.63;0.63;;;6.80;94.90;;;;;;4916967;29;20441;-82
2022/01/14 11:30:46;;;;;;;0.30;0.30;;;6.90;95.40;;;;;;4917001;29;20925;-82
2022/01/14 11:33:15;;;;;;;0.40;0.40;;;6.90;95.70;;;;;;4917129;29;20616;-82
2022/01/14 11:35:54;;;;;;;0.50;0.50;;;6.90;96.00;;;;;;4917847;29;20476;-82
2022/01/14 11:38:38;;;;;;;0.30;0.30;;;6.90;96.80;;;;;;4916713;29;20488;-82
2022/01/14 11:41:07;;;;;;;0.53;0.33;;;6.90;97.40;;;;;;4917205;29;20432;-82
2022/01/14 11:43:46;;;;;;;0.30;0.30;;;7.00;97.30;;;;;;4916922;29;20548;-82
2022/01/14 11:46:16;;;;;;;0.30;0.20;;;7.10;97.00;;;;;;4917129;29;20428;-82
2022/01/14 11:48:47;;;;;;;1.80;0.60;;;7.10;97.10;;;;;;4917558;29;20448;-82
2022/01/14 11:51:16;;;;;;;0.30;0.30;;;7.10;97.40;;;;;;4917279;29;20516;-83
2022/01/14 11:53:49;;;;;;;0.40;0.30;;;7.10;97.90;;;;;;4916684;29;20472;-83
2022/01/14 11:56:47;;;;;;;0.30;0.30;;;7.10;98.30;;;;;;4917362;29;20440;-82
2022/01/14 11:59:46;;;;;;;0.40;0.30;;;7.10;99.00;;;;;;4916996;29;20822;-82
2022/01/14 12:02:39;;;;;;;0.90;0.40;;;7.10;99.90;;;;;;4917444;29;20440;-82
2022/01/14 12:05:09;;;;;;;0.30;0.30;;;7.00;99.90;;;;;;4916844;29;20488;-81
2022/01/14 12:08:22;;;;;;;0.30;0.30;;;7.00;99.90;;;;;;4916825;29;20443;-81
2022/01/14 12:10:55;;;;;;;0.30;0.20;;;7.00;99.90;;;;;;4916915;29;20464;-81
2022/01/14 12:13:37;;;;;;;0.50;0.40;;;6.90;99.90;;;;;;4917033;29;20464;-81
2022/01/14 12:16:07;;;;;;;0.30;0.30;;;7.00;99.90;;;;;;4917208;29;20848;-82
2022/01/14 12:19:21;;;;;;;0.30;0.20;;;7.00;99.90;;;;;;4916442;29;20999;-82
2022/01/14 12:22:02;;;;;;;0.50;0.30;;;7.00;99.90;;;;;;4916788;29;20448;-82
2022/01/14 12:24:49;;;;;;;0.40;0.40;;;6.90;99.90;;;;;;4916681;29;20482;-82
2022/01/14 12:27:46;;;;;;;0.30;0.30;;;6.80;99.90;;;;;;4916800;29;20443;-82
2022/01/14 12:30:31;;;;;;;0.40;0.37;;;6.80;99.90;;;;;;4919173;29;20441;-82
2022/01/14 12:32:58;;;;;;;0.30;0.30;;;6.80;99.90;;;;;;4917031;29;20432;-81
2022/01/14 12:35:33;;;;;;;0.30;0.30;;;6.70;99.90;;;;;;4916698;29;20436;-81
2022/01/14 12:38:00;;;;;;;0.30;0.20;;;6.70;99.90;;;;;;4916417;29;20508;-82
2022/01/14 12:40:31;;;;;;;0.30;0.30;;;6.70;99.90;;;;;;4919301;29;20444;-82
2022/01/14 12:43:01;;;;;;;0.30;0.30;;;6.70;99.90;;;;;;4919624;29;20436;-82
2022/01/14 12:45:33;;;;;;;0.30;0.30;;;6.70;99.90;;;;;;4919986;29;20452;-82
2022/01/14 12:48:13;;;;;;;0.50;0.30;;;6.80;99.90;;;;;;4919942;29;20527;-82
2022/01/14 12:50:39;;;;;;;0.40;0.33;;;6.70;99.90;;;;;;4919828;29;20436;-81
2022/01/14 12:53:06;;;;;;;0.60;0.33;;;6.70;99.90;;;;;;4919470;29;20808;-81
2022/01/14 12:55:34;;;;;;;0.30;0.30;;;6.70;99.90;;;;;;4919701;29;20440;-82
2022/01/14 12:58:03;;;;;;;0.60;0.60;;;6.70;99.90;;;;;;4919691;29;20472;-82
2022/01/14 13:00:29;;;;;;;0.30;0.30;;;6.60;99.90;;;;;;4919770;29;20444;-82
2022/01/14 13:02:56;;;;;;;0.40;0.40;;;6.60;99.90;;;;;;4919600;29;20436;-81
2022/01/14 13:05:26;;;;;;;0.33;0.33;;;6.60;99.90;;;;;;4919608;29;20444;-81
2022/01/14 13:07:52;;;;;;;0.30;0.30;;;6.60;99.90;;;;;;4919477;29;20531;-81
2022/01/14 13:10:19;;;;;;;0.63;0.63;;;6.60;99.90;;;;;;4919438;29;20449;-81
2022/01/14 13:12:47;;;;;;;0.30;0.30;;;6.70;99.90;;;;;;4919082;29;20943;-81
2022/01/14 13:15:19;;;;;;;0.30;0.30;;;6.70;99.90;;;;;;4919198;29;20440;-81